createdAt,value
2022-09-26T00:01:17.142Z,0.00
2022-09-26T00:06:48.576Z,0.00
2022-09-26T00:12:20.126Z,1.00
2022-09-26T00:17:51.700Z,1.00
2022-09-26T00:23:23.027Z,1.00
2022-09-26T00:28:54.299Z,1.00
2022-09-26T00:34:25.653Z,1.00
2022-09-26T00:39:56.806Z,1.00
2022-09-26T00:45:28.194Z,1.00
2022-09-26T00:50:59.540Z,1.00
2022-09-26T00:56:31.323Z,0.00
2022-09-26T01:02:03.144Z,1.00
2022-09-26T01:07:34.505Z,1.00
2022-09-26T01:13:06.121Z,0.00
2022-09-26T01:18:37.821Z,0.00
2022-09-26T01:24:09.130Z,1.00
2022-09-26T01:29:40.915Z,1.00
2022-09-26T01:35:12.112Z,0.00
2022-09-26T01:40:43.506Z,0.00
2022-09-26T01:46:15.050Z,1.00
2022-09-26T01:51:46.606Z,1.00
2022-09-26T01:57:18.403Z,1.00
2022-09-26T02:02:50.568Z,1.00
2022-09-26T02:08:22.018Z,1.00
2022-09-26T02:13:53.732Z,1.00
2022-09-26T02:19:25.479Z,1.00
2022-09-26T02:24:57.224Z,1.00
2022-09-26T02:30:29.022Z,1.00
2022-09-26T02:36:00.697Z,1.00
2022-09-26T02:41:32.157Z,1.00
2022-09-26T02:47:03.863Z,0.00
2022-09-26T02:52:35.212Z,1.00
2022-09-26T02:58:07.571Z,1.00
2022-09-26T03:03:39.506Z,1.00
2022-09-26T03:09:11.300Z,1.00
2022-09-26T03:14:42.746Z,1.00
2022-09-26T03:20:14.122Z,1.00
2022-09-26T03:25:45.991Z,1.00
2022-09-26T03:31:17.756Z,1.00
2022-09-26T03:42:18.511Z,1.00
2022-09-26T03:47:50.360Z,1.00
2022-09-26T03:53:22.076Z,1.00
2022-09-26T03:58:53.842Z,1.00
2022-09-26T04:04:25.131Z,1.00
2022-09-26T04:09:56.631Z,1.00
2022-09-26T04:15:28.171Z,2.00
2022-09-26T04:20:59.920Z,2.00
2022-09-26T04:26:31.287Z,2.00
2022-09-26T04:32:03.126Z,2.00
2022-09-26T04:37:35.021Z,5.00
2022-09-26T04:43:06.769Z,10.00
2022-09-26T04:48:38.357Z,30.00
2022-09-26T04:54:09.930Z,77.00
2022-09-26T04:59:41.448Z,168.00
2022-09-26T05:05:12.735Z,342.00
2022-09-26T05:10:44.702Z,433.00
2022-09-26T05:16:16.141Z,443.00
2022-09-26T05:21:47.518Z,891.00
2022-09-26T05:27:19.271Z,1141.00
2022-09-26T05:32:51.088Z,1239.00
2022-09-26T05:38:23.044Z,1429.00
2022-09-26T05:43:54.856Z,747.00
2022-09-26T05:49:26.641Z,462.00
2022-09-26T05:54:58.371Z,756.00
2022-09-26T06:00:30.309Z,800.00
2022-09-26T06:11:31.634Z,4620.00
2022-09-26T06:17:03.537Z,5483.00
2022-09-26T06:22:35.536Z,16081.00
2022-09-26T06:28:07.424Z,15458.00
2022-09-26T06:33:38.964Z,7519.00
2022-09-26T06:39:10.793Z,23548.00
2022-09-26T06:44:42.508Z,23725.00
2022-09-26T06:50:14.088Z,20411.00
2022-09-26T06:55:45.460Z,14936.00
2022-09-26T07:01:17.643Z,15982.00
2022-09-26T07:06:49.320Z,21472.00
2022-09-26T07:12:21.040Z,21867.00
2022-09-26T07:17:52.871Z,15130.00
2022-09-26T07:23:24.697Z,22429.00
2022-09-26T07:28:56.490Z,20012.00
2022-09-26T07:34:28.223Z,20533.00
2022-09-26T07:40:01.738Z,5814.00
2022-09-26T07:45:32.014Z,8315.00
2022-09-26T07:51:08.993Z,7363.00
2022-09-26T07:56:35.171Z,21851.00
2022-09-26T08:02:07.252Z,16436.00
2022-09-26T08:07:38.988Z,0.00
2022-09-26T08:13:10.608Z,0.00
2022-09-26T08:24:11.682Z,17934.00
2022-09-26T08:29:43.468Z,21607.00
2022-09-26T08:35:15.175Z,18643.00
2022-09-26T08:40:46.790Z,19878.00
2022-09-26T08:46:18.041Z,2346.00
2022-09-26T08:51:51.464Z,16699.00
2022-09-26T08:57:23.283Z,10459.00
2022-09-26T09:02:54.975Z,12940.00
2022-09-26T09:08:26.258Z,11004.00
2022-09-26T09:10:38.657Z,10247.00
2022-09-26T09:16:10.485Z,0.00
2022-09-26T09:21:42.178Z,6097.00
2022-09-26T09:32:44.764Z,3924.00
2022-09-26T09:38:16.047Z,0.00
2022-09-26T09:43:47.345Z,4203.00
2022-09-26T09:49:18.762Z,0.00
2022-09-26T09:54:50.123Z,12237.00
2022-09-26T10:00:21.294Z,21520.00
2022-09-26T10:05:52.622Z,21008.00
2022-09-26T10:11:24.130Z,23780.00
2022-09-26T10:16:56.977Z,16807.00
2022-09-26T10:22:28.635Z,17632.00
2022-09-26T10:27:59.846Z,22835.00
2022-09-26T10:33:31.384Z,17060.00
2022-09-26T10:39:03.091Z,20320.00
2022-09-26T10:44:34.755Z,6846.00
2022-09-26T10:50:05.895Z,12902.00
2022-09-26T10:55:37.261Z,16571.00
2022-09-26T11:01:08.713Z,4472.00
2022-09-26T11:06:40.026Z,9609.00
2022-09-26T11:12:11.291Z,9103.00
2022-09-26T11:17:42.737Z,7351.00
2022-09-26T11:23:14.603Z,8074.00
2022-09-26T11:28:46.541Z,8624.00
2022-09-26T11:34:17.962Z,7301.00
2022-09-26T11:39:49.377Z,7331.00
2022-09-26T11:45:20.704Z,5877.00
2022-09-26T11:50:52.001Z,7007.00
2022-09-26T11:56:23.273Z,8000.00
2022-09-26T12:01:54.722Z,12080.00
2022-09-26T12:07:26.014Z,12305.00
2022-09-26T12:12:57.226Z,11923.00
2022-09-26T12:18:28.612Z,13662.00
2022-09-26T12:35:00.839Z,17358.00
2022-09-26T12:40:32.397Z,12931.00
2022-09-26T12:46:05.978Z,23283.00
2022-09-26T12:51:37.866Z,22204.00
2022-09-26T12:57:09.260Z,23802.00
2022-09-26T13:02:40.748Z,17955.00
2022-09-26T13:08:12.068Z,21747.00
2022-09-26T13:13:43.847Z,22789.00
2022-09-26T13:19:15.243Z,21521.00
2022-09-26T13:24:46.456Z,22710.00
2022-09-26T13:30:17.622Z,21348.00
2022-09-26T13:35:49.080Z,12473.00
2022-09-26T13:41:20.270Z,14585.00
2022-09-26T13:43:43.567Z,19899.00
2022-09-26T13:49:15.085Z,20368.00
2022-09-26T13:54:46.252Z,14644.00
2022-09-26T14:00:17.764Z,18834.00
2022-09-26T14:05:49.419Z,19063.00
2022-09-26T14:11:20.684Z,23658.00
2022-09-26T14:16:52.429Z,21435.00
2022-09-26T14:22:24.063Z,15417.00
2022-09-26T14:27:58.154Z,19444.00
2022-09-26T14:33:29.477Z,23340.00
2022-09-26T14:39:01.148Z,19714.00
2022-09-26T14:44:36.923Z,16918.00
2022-09-26T14:50:04.935Z,18261.00
2022-09-26T14:55:36.346Z,13277.00
2022-09-26T15:01:07.995Z,12703.00
2022-09-26T15:06:39.458Z,16312.00
2022-09-26T15:12:11.310Z,19097.00
2022-09-26T15:17:43.267Z,19043.00
2022-09-26T15:23:14.655Z,18279.00
2022-09-26T15:28:46.857Z,16128.00
2022-09-26T15:34:18.353Z,16288.00
2022-09-26T15:39:49.590Z,12586.00
2022-09-26T15:45:20.995Z,10135.00
2022-09-26T15:50:52.663Z,13453.00
2022-09-26T15:56:24.053Z,11599.00
2022-09-26T16:01:55.709Z,8595.00
2022-09-26T16:07:27.001Z,9580.00
2022-09-26T16:12:58.425Z,7816.00
2022-09-26T16:18:29.754Z,6317.00
2022-09-26T16:24:01.265Z,5512.00
2022-09-26T16:29:32.607Z,5663.00
2022-09-26T16:35:04.127Z,4912.00
2022-09-26T16:40:35.649Z,4052.00
2022-09-26T16:46:07.231Z,2955.00
2022-09-26T16:51:39.786Z,1980.00
2022-09-26T16:57:10.308Z,1293.00
2022-09-26T17:02:42.052Z,869.00
2022-09-26T17:08:13.493Z,511.00
2022-09-26T17:13:45.123Z,252.00
2022-09-26T17:19:16.476Z,105.00
2022-09-26T17:24:48.270Z,34.00
2022-09-26T17:30:19.373Z,13.00
2022-09-26T17:35:50.721Z,7.00
2022-09-26T17:41:22.295Z,4.00
2022-09-26T17:52:25.450Z,4.00
2022-09-26T17:57:57.227Z,2.00
2022-09-26T18:03:29.006Z,3.00
2022-09-26T18:09:00.677Z,4.00
2022-09-26T18:14:37.139Z,12.00
2022-09-26T18:20:08.691Z,12.00
2022-09-26T18:25:40.760Z,4.00
2022-09-26T18:31:12.133Z,2.00
2022-09-26T18:42:21.393Z,3.00
2022-09-26T18:53:24.666Z,3.00
2022-09-26T18:58:56.155Z,2.00
2022-09-26T19:04:27.634Z,2.00
2022-09-26T19:15:30.637Z,2.00
2022-09-26T19:21:02.285Z,4.00
2022-09-26T19:26:34.075Z,3.00
2022-09-26T19:32:05.328Z,3.00
2022-09-26T19:37:36.818Z,3.00
2022-09-26T19:43:08.598Z,2.00
2022-09-26T19:48:40.318Z,2.00
2022-09-26T19:54:13.841Z,4.00
2022-09-26T19:59:45.450Z,4.00
2022-09-26T20:05:17.177Z,3.00
2022-09-26T20:10:48.940Z,2.00
2022-09-26T20:16:20.911Z,4.00
2022-09-26T20:21:52.670Z,3.00
2022-09-26T20:27:24.705Z,2.00
2022-09-26T20:32:56.400Z,3.00
2022-09-26T20:38:27.702Z,3.00
2022-09-26T20:43:59.293Z,2.00
2022-09-26T20:49:31.197Z,1.00
2022-09-26T20:55:04.364Z,1.00
2022-09-26T21:00:36.135Z,1.00
2022-09-26T21:06:07.895Z,2.00
2022-09-26T21:11:39.850Z,1.00
2022-09-26T21:17:11.873Z,1.00
2022-09-26T21:19:36.031Z,2.00
2022-09-26T21:25:07.865Z,1.00
2022-09-26T21:30:39.922Z,0.00
2022-09-26T21:41:40.945Z,1.00
2022-09-26T21:47:14.384Z,1.00
2022-09-26T21:52:46.162Z,1.00
2022-09-26T21:58:18.039Z,0.00
2022-09-26T22:09:21.787Z,2.00
2022-09-26T22:14:53.511Z,1.00
2022-09-26T22:20:25.323Z,1.00
2022-09-26T22:31:30.310Z,1.00
2022-09-26T22:42:33.892Z,1.00
2022-09-26T22:53:39.204Z,1.00
2022-09-26T22:59:11.068Z,1.00
2022-09-26T23:04:42.986Z,0.00
2022-09-26T23:10:14.639Z,1.00
2022-09-26T23:15:47.047Z,1.00
2022-09-26T23:21:18.877Z,1.00
2022-09-26T23:26:50.485Z,0.00
2022-09-26T23:32:22.678Z,1.00
2022-09-26T23:37:54.569Z,1.00
2022-09-26T23:48:59.157Z,1.00
2022-09-26T23:54:30.895Z,2.00
